createdAt,value
2019-03-27T00:02:16.397Z,11.28
2019-03-27T00:04:47.516Z,9.83
2019-03-27T00:07:19.142Z,9.95
2019-03-27T00:09:50.391Z,9.55
2019-03-27T00:12:21.990Z,11.73
2019-03-27T00:14:53.187Z,11.10
2019-03-27T00:17:24.300Z,11.22
2019-03-27T00:19:55.452Z,12.50
2019-03-27T00:22:26.972Z,11.30
2019-03-27T00:24:58.560Z,11.45
2019-03-27T00:27:29.696Z,12.78
2019-03-27T00:30:01.025Z,12.93
2019-03-27T00:32:34.374Z,12.53
2019-03-27T00:35:05.759Z,15.13
2019-03-27T00:37:37.342Z,11.97
2019-03-27T00:40:09.094Z,12.40
2019-03-27T00:42:40.246Z,13.70
2019-03-27T00:45:25.472Z,12.15
2019-03-27T00:47:48.043Z,11.50
2019-03-27T00:50:20.671Z,14.00
2019-03-27T00:52:52.336Z,14.23
2019-03-27T00:55:23.755Z,13.53
2019-03-27T00:57:56.220Z,12.95
2019-03-27T01:00:31.389Z,15.70
2019-03-27T01:03:03.495Z,15.68
2019-03-27T01:05:36.325Z,14.20
2019-03-27T01:08:07.427Z,15.03
2019-03-27T01:10:40.519Z,15.53
2019-03-27T01:13:11.706Z,15.60
2019-03-27T01:15:42.729Z,13.83
2019-03-27T01:18:13.856Z,13.33
2019-03-27T01:20:45.135Z,12.80
2019-03-27T01:23:16.308Z,13.48
2019-03-27T01:25:47.658Z,14.95
2019-03-27T01:28:19.894Z,14.45
2019-03-27T01:30:51.085Z,15.28
2019-03-27T01:33:24.826Z,14.75
2019-03-27T01:35:56.370Z,17.40
2019-03-27T01:38:28.867Z,15.93
2019-03-27T01:41:01.894Z,13.70
2019-03-27T01:43:43.952Z,15.05
2019-03-27T01:46:15.130Z,12.70
2019-03-27T01:48:46.287Z,14.78
2019-03-27T01:51:17.406Z,14.60
2019-03-27T01:53:48.654Z,16.87
2019-03-27T01:56:19.730Z,19.15
2019-03-27T01:58:50.848Z,17.12
2019-03-27T02:01:22.412Z,15.23
2019-03-27T02:03:54.725Z,17.05
2019-03-27T02:06:26.331Z,16.57
2019-03-27T02:08:57.891Z,16.75
2019-03-27T02:11:28.939Z,17.57
2019-03-27T02:14:00.419Z,18.35
2019-03-27T02:16:32.810Z,17.00
2019-03-27T02:19:05.472Z,19.05
2019-03-27T02:21:36.619Z,18.50
2019-03-27T02:24:08.381Z,17.32
2019-03-27T02:26:43.338Z,17.95
2019-03-27T02:29:13.692Z,19.90
2019-03-27T02:31:47.616Z,17.23
2019-03-27T02:34:18.995Z,16.05
2019-03-27T02:36:50.434Z,18.45
2019-03-27T02:39:21.921Z,19.23
2019-03-27T02:41:53.873Z,18.02
2019-03-27T02:44:25.360Z,17.70
2019-03-27T02:46:56.900Z,20.45
2019-03-27T02:49:28.367Z,21.40
2019-03-27T02:52:00.926Z,21.60
2019-03-27T02:54:32.318Z,21.37
2019-03-27T02:57:03.592Z,21.07
2019-03-27T02:59:37.245Z,20.80
2019-03-27T03:02:08.339Z,22.13
2019-03-27T03:04:41.895Z,19.37
2019-03-27T03:07:13.383Z,19.55
2019-03-27T03:09:45.371Z,24.23
2019-03-27T03:12:17.800Z,22.42
2019-03-27T03:14:48.941Z,21.90
2019-03-27T03:17:20.116Z,23.12
2019-03-27T03:19:51.083Z,24.70
2019-03-27T03:22:22.629Z,24.45
2019-03-27T03:24:54.036Z,25.25
2019-03-27T03:27:25.579Z,24.20
2019-03-27T03:29:56.744Z,26.30
2019-03-27T03:32:27.924Z,24.80
2019-03-27T03:35:01.478Z,24.43
2019-03-27T03:37:32.756Z,27.67
2019-03-27T03:40:04.837Z,27.80
2019-03-27T03:42:36.951Z,28.02
2019-03-27T03:45:09.328Z,26.27
2019-03-27T03:47:40.524Z,26.27
2019-03-27T03:50:26.777Z,25.65
2019-03-27T03:52:57.922Z,27.17
2019-03-27T03:55:29.454Z,28.60
2019-03-27T03:58:02.238Z,26.33
2019-03-27T04:00:37.242Z,28.90
2019-03-27T04:03:08.791Z,28.30
2019-03-27T04:05:39.795Z,29.60
2019-03-27T04:08:11.562Z,30.37
2019-03-27T04:10:42.742Z,28.17
2019-03-27T04:13:13.948Z,29.45
2019-03-27T04:15:46.099Z,29.27
2019-03-27T04:18:17.662Z,26.23
2019-03-27T04:20:49.229Z,27.93
2019-03-27T04:23:20.295Z,29.23
2019-03-27T04:26:09.197Z,27.07
2019-03-27T04:28:24.287Z,28.70
2019-03-27T04:30:55.662Z,26.80
2019-03-27T04:33:27.348Z,28.85
2019-03-27T04:35:58.384Z,25.68
2019-03-27T04:38:29.487Z,27.90
2019-03-27T04:41:01.362Z,27.00
2019-03-27T04:43:32.810Z,26.95
2019-03-27T04:46:04.172Z,28.27
2019-03-27T04:48:35.866Z,28.45
2019-03-27T04:51:07.078Z,29.67
2019-03-27T04:53:39.220Z,29.33
2019-03-27T04:56:11.191Z,28.10
2019-03-27T04:58:42.366Z,27.50
2019-03-27T05:01:13.866Z,28.35
2019-03-27T05:03:45.051Z,27.05
2019-03-27T05:06:18.820Z,26.77
2019-03-27T05:08:50.030Z,25.77
2019-03-27T05:11:21.162Z,27.00
2019-03-27T05:13:52.278Z,25.10
2019-03-27T05:16:23.529Z,25.95
2019-03-27T05:18:54.741Z,23.83
2019-03-27T05:21:25.955Z,24.90
2019-03-27T05:23:57.249Z,24.97
2019-03-27T05:26:28.985Z,25.35
2019-03-27T05:29:00.148Z,25.57
2019-03-27T05:31:31.289Z,27.70
2019-03-27T05:34:02.415Z,27.97
2019-03-27T05:36:33.953Z,26.15
2019-03-27T05:39:09.407Z,26.73
2019-03-27T05:41:40.911Z,28.77
2019-03-27T05:44:12.071Z,28.67
2019-03-27T05:46:43.410Z,31.52
2019-03-27T05:49:14.716Z,28.45
2019-03-27T05:51:45.890Z,28.07
2019-03-27T05:54:17.159Z,27.40
2019-03-27T05:56:48.296Z,28.25
2019-03-27T05:59:19.415Z,32.83
2019-03-27T06:01:51.002Z,28.38
2019-03-27T06:04:22.384Z,29.70
2019-03-27T06:06:53.442Z,29.97
2019-03-27T06:09:24.684Z,29.52
2019-03-27T06:11:56.913Z,26.40
2019-03-27T06:14:29.450Z,26.93
2019-03-27T06:17:01.400Z,27.37
2019-03-27T06:19:32.493Z,29.90
2019-03-27T06:22:03.679Z,27.35
2019-03-27T06:24:35.231Z,29.65
2019-03-27T06:27:06.745Z,29.42
2019-03-27T06:29:38.025Z,27.32
2019-03-27T06:32:09.798Z,29.12
2019-03-27T06:34:41.096Z,30.17
2019-03-27T06:37:12.766Z,27.82
2019-03-27T06:39:44.373Z,27.42
2019-03-27T06:42:15.579Z,25.97
2019-03-27T06:44:47.023Z,26.03
2019-03-27T06:47:20.661Z,25.62
2019-03-27T06:49:52.072Z,27.67
2019-03-27T06:52:37.966Z,28.27
2019-03-27T06:55:23.164Z,25.30
2019-03-27T06:57:55.362Z,24.92
2019-03-27T07:00:37.235Z,25.82
2019-03-27T07:03:09.779Z,26.10
2019-03-27T07:05:40.936Z,36.00
2019-03-27T07:08:12.437Z,30.00
2019-03-27T07:10:44.385Z,24.43
2019-03-27T07:13:40.123Z,23.65
2019-03-27T07:16:29.502Z,23.92
2019-03-27T07:19:07.634Z,26.52
2019-03-27T07:21:40.613Z,25.27
2019-03-27T07:24:12.101Z,25.55
2019-03-27T07:26:43.336Z,26.15
2019-03-27T07:29:14.862Z,24.63
2019-03-27T07:31:47.835Z,26.30
2019-03-27T07:34:19.067Z,26.65
2019-03-27T07:36:51.182Z,25.95
2019-03-27T07:39:23.269Z,23.57
2019-03-27T07:41:54.484Z,23.55
2019-03-27T07:44:25.677Z,24.12
2019-03-27T07:46:57.206Z,23.92
2019-03-27T07:49:28.659Z,24.25
2019-03-27T07:52:02.130Z,24.63
2019-03-27T07:54:33.382Z,25.10
2019-03-27T07:57:04.554Z,25.10
2019-03-27T07:59:35.893Z,24.70
2019-03-27T08:02:06.886Z,24.32
2019-03-27T08:05:27.066Z,24.65
2019-03-27T08:07:59.428Z,22.07
2019-03-27T08:10:30.567Z,24.65
2019-03-27T08:13:01.682Z,25.85
2019-03-27T08:15:32.885Z,24.92
2019-03-27T08:18:04.950Z,30.40
2019-03-27T08:20:37.091Z,25.05
2019-03-27T08:23:10.271Z,25.45
2019-03-27T08:25:41.531Z,22.50
2019-03-27T08:28:12.668Z,26.75
2019-03-27T08:30:54.189Z,26.80
2019-03-27T08:33:29.711Z,30.48
2019-03-27T08:36:01.023Z,32.20
2019-03-27T08:38:39.917Z,25.52
2019-03-27T08:41:11.914Z,24.98
2019-03-27T08:43:43.354Z,24.57
2019-03-27T08:46:22.661Z,28.07
2019-03-27T08:48:55.486Z,26.20
2019-03-27T08:51:38.655Z,25.40
2019-03-27T08:54:20.416Z,26.55
2019-03-27T08:56:52.215Z,25.92
2019-03-27T08:59:23.912Z,27.35
2019-03-27T09:02:07.523Z,28.70
2019-03-27T09:04:41.936Z,36.70
2019-03-27T09:07:18.764Z,24.55
2019-03-27T09:09:51.583Z,24.10
2019-03-27T09:12:26.736Z,21.97
2019-03-27T09:15:01.846Z,28.60
2019-03-27T09:17:33.396Z,32.33
2019-03-27T09:20:11.659Z,25.85
2019-03-27T09:22:43.351Z,24.85
2019-03-27T09:25:23.860Z,24.87
2019-03-27T09:27:56.486Z,28.20
2019-03-27T09:30:28.050Z,30.10
2019-03-27T09:32:59.699Z,22.67
2019-03-27T09:35:31.586Z,21.33
2019-03-27T09:38:03.261Z,25.62
2019-03-27T09:40:34.445Z,24.40
2019-03-27T09:43:06.675Z,21.40
2019-03-27T09:45:38.267Z,23.12
2019-03-27T09:48:09.710Z,22.57
2019-03-27T09:50:42.397Z,35.70
2019-03-27T09:57:32.704Z,24.55
2019-03-27T10:00:04.767Z,25.15
2019-03-27T10:02:36.283Z,24.07
2019-03-27T10:05:08.499Z,24.33
2019-03-27T10:07:39.768Z,22.32
2019-03-27T10:10:11.429Z,24.37
2019-03-27T10:12:43.019Z,24.65
2019-03-27T10:15:14.432Z,23.10
2019-03-27T10:17:46.493Z,21.15
2019-03-27T10:20:17.681Z,20.50
2019-03-27T10:22:49.633Z,20.40
2019-03-27T10:25:20.855Z,21.80
2019-03-27T10:27:57.740Z,21.87
2019-03-27T10:30:28.911Z,37.28
2019-03-27T10:33:00.430Z,19.80
2019-03-27T10:35:31.773Z,21.52
2019-03-27T10:38:02.969Z,20.17
2019-03-27T10:40:35.006Z,21.68
2019-03-27T10:43:06.948Z,18.55
2019-03-27T10:45:39.320Z,21.17
2019-03-27T10:48:10.858Z,19.07
2019-03-27T10:50:45.372Z,20.08
2019-03-27T10:53:22.241Z,21.00
2019-03-27T10:56:22.462Z,21.20
2019-03-27T10:59:00.625Z,21.33
2019-03-27T11:01:31.909Z,22.83
2019-03-27T11:04:03.544Z,25.07
2019-03-27T11:06:35.279Z,22.58
2019-03-27T11:09:09.534Z,25.35
2019-03-27T11:11:40.798Z,23.87
2019-03-27T11:14:20.044Z,24.00
2019-03-27T11:16:51.605Z,24.10
2019-03-27T11:19:23.176Z,25.17
2019-03-27T11:21:54.385Z,24.98
2019-03-27T11:24:25.877Z,24.07
2019-03-27T11:26:58.373Z,25.10
2019-03-27T11:29:29.977Z,28.55
2019-03-27T11:32:20.776Z,28.42
2019-03-27T11:35:21.959Z,27.70
2019-03-27T11:37:55.477Z,25.57
2019-03-27T11:40:33.988Z,26.23
2019-03-27T11:43:34.176Z,27.40
2019-03-27T11:46:06.630Z,30.23
2019-03-27T11:48:38.366Z,28.00
2019-03-27T11:51:10.332Z,30.43
2019-03-27T11:54:23.467Z,30.20
2019-03-27T11:56:56.693Z,30.35
2019-03-27T11:59:28.454Z,27.50
2019-03-27T12:02:02.686Z,30.20
2019-03-27T12:04:48.985Z,33.30
2019-03-27T12:07:40.538Z,31.17
2019-03-27T12:10:25.172Z,31.95
2019-03-27T12:12:57.542Z,31.05
2019-03-27T12:15:42.474Z,30.62
2019-03-27T12:18:15.779Z,31.65
2019-03-27T12:20:58.337Z,32.35
2019-03-27T12:23:20.175Z,43.38
2019-03-27T12:25:54.952Z,33.73
2019-03-27T12:28:25.269Z,36.50
2019-03-27T12:31:00.867Z,31.17
2019-03-27T12:33:38.432Z,30.97
2019-03-27T12:36:11.793Z,31.50
2019-03-27T12:38:42.991Z,34.45
2019-03-27T12:41:14.384Z,40.23
2019-03-27T12:43:45.971Z,30.55
2019-03-27T12:46:17.552Z,33.70
2019-03-27T12:48:48.998Z,32.45
2019-03-27T12:51:20.157Z,33.58
2019-03-27T12:53:53.456Z,29.15
2019-03-27T12:56:24.819Z,31.57
2019-03-27T12:58:56.142Z,29.77
2019-03-27T13:01:27.771Z,28.40
2019-03-27T13:03:59.316Z,30.27
2019-03-27T13:06:30.403Z,29.60
2019-03-27T13:09:02.458Z,26.07
2019-03-27T13:11:36.888Z,28.12
2019-03-27T13:14:08.305Z,27.90
2019-03-27T13:16:39.588Z,24.10
2019-03-27T13:19:11.004Z,28.27
2019-03-27T13:21:42.306Z,28.12
2019-03-27T13:24:15.375Z,35.47
2019-03-27T13:26:47.150Z,29.82
2019-03-27T13:29:18.643Z,26.27
2019-03-27T13:31:49.847Z,27.58
2019-03-27T13:34:21.505Z,27.13
2019-03-27T13:36:53.760Z,30.30
2019-03-27T13:39:25.282Z,30.12
2019-03-27T13:41:57.696Z,29.82
2019-03-27T13:44:36.912Z,27.57
2019-03-27T13:47:02.207Z,26.02
2019-03-27T13:49:34.075Z,29.23
2019-03-27T13:52:06.020Z,26.90
2019-03-27T13:54:37.057Z,25.52
2019-03-27T13:57:08.639Z,26.40
2019-03-27T13:59:39.902Z,27.27
2019-03-27T14:02:11.010Z,26.80
2019-03-27T14:04:42.051Z,26.15
2019-03-27T14:07:13.241Z,27.35
2019-03-27T14:09:47.024Z,36.23
2019-03-27T14:12:18.361Z,33.08
2019-03-27T14:14:50.718Z,27.95
2019-03-27T14:17:29.195Z,27.25
2019-03-27T14:20:02.659Z,31.80
2019-03-27T14:22:34.553Z,27.55
2019-03-27T14:25:11.029Z,26.30
2019-03-27T14:27:45.323Z,34.53
2019-03-27T14:30:18.143Z,27.15
2019-03-27T14:32:54.366Z,27.13
2019-03-27T14:35:29.414Z,28.47
2019-03-27T14:38:00.829Z,26.50
2019-03-27T14:40:35.825Z,26.30
2019-03-27T14:43:07.815Z,26.48
2019-03-27T14:45:39.028Z,28.03
2019-03-27T14:48:24.833Z,30.10
2019-03-27T14:50:56.466Z,28.37
2019-03-27T14:53:27.945Z,28.35
2019-03-27T14:55:59.559Z,26.37
2019-03-27T14:58:30.660Z,25.12
2019-03-27T15:01:02.408Z,29.15
2019-03-27T15:03:33.953Z,30.62
2019-03-27T15:06:05.157Z,28.15
2019-03-27T15:08:36.260Z,27.67
2019-03-27T15:11:10.842Z,28.23
2019-03-27T15:13:42.738Z,37.88
2019-03-27T15:16:15.846Z,33.95
2019-03-27T15:18:47.415Z,31.00
2019-03-27T15:21:21.006Z,29.67
2019-03-27T15:23:52.192Z,27.93
2019-03-27T15:26:26.439Z,30.15
2019-03-27T15:28:57.940Z,28.63
2019-03-27T15:31:29.518Z,29.37
2019-03-27T15:34:01.018Z,31.40
2019-03-27T15:36:32.576Z,28.17
2019-03-27T15:39:05.196Z,29.65
2019-03-27T15:41:37.776Z,29.03
2019-03-27T15:44:09.919Z,28.98
2019-03-27T15:46:43.344Z,29.10
2019-03-27T15:49:14.308Z,29.37
2019-03-27T15:51:48.163Z,30.62
2019-03-27T15:54:20.027Z,29.40
2019-03-27T15:56:56.263Z,32.05
2019-03-27T15:59:27.958Z,30.37
2019-03-27T16:01:59.121Z,28.90
2019-03-27T16:04:32.374Z,29.82
2019-03-27T16:07:04.434Z,31.70
2019-03-27T16:09:35.464Z,31.27
2019-03-27T16:12:07.970Z,33.63
2019-03-27T16:14:39.213Z,31.20
2019-03-27T16:17:13.612Z,27.25
2019-03-27T16:19:44.473Z,30.40
2019-03-27T16:22:16.053Z,27.77
2019-03-27T16:24:47.774Z,29.45
2019-03-27T16:27:19.222Z,29.77
2019-03-27T16:29:50.578Z,30.30
2019-03-27T16:32:22.398Z,25.75
2019-03-27T16:34:53.774Z,29.42
2019-03-27T16:37:25.133Z,30.40
2019-03-27T16:39:58.285Z,29.35
2019-03-27T16:42:29.806Z,27.30
2019-03-27T16:45:01.037Z,29.52
2019-03-27T16:47:34.200Z,30.90
2019-03-27T16:50:09.687Z,32.25
2019-03-27T16:52:40.890Z,25.20
2019-03-27T16:55:12.492Z,27.07
2019-03-27T16:57:43.649Z,26.45
2019-03-27T17:00:15.836Z,31.00
2019-03-27T17:02:47.178Z,30.00
2019-03-27T17:05:21.828Z,28.60
2019-03-27T17:07:54.016Z,27.52
2019-03-27T17:10:25.796Z,33.18
2019-03-27T17:12:57.051Z,31.70
2019-03-27T17:15:28.642Z,27.55
2019-03-27T17:18:03.338Z,27.93
2019-03-27T17:20:35.059Z,33.65
2019-03-27T17:23:17.387Z,28.02
2019-03-27T17:25:40.414Z,37.40
2019-03-27T17:28:12.943Z,24.13
2019-03-27T17:30:44.298Z,26.17
2019-03-27T17:33:15.876Z,23.30
2019-03-27T17:35:50.301Z,26.33
2019-03-27T17:38:36.013Z,26.27
2019-03-27T17:41:16.537Z,25.57
2019-03-27T17:43:58.691Z,28.15
2019-03-27T17:46:31.262Z,27.43
2019-03-27T17:49:02.908Z,26.62
2019-03-27T17:51:34.060Z,28.70
2019-03-27T17:54:05.418Z,26.52
2019-03-27T17:56:37.130Z,26.30
2019-03-27T17:59:08.252Z,32.93
2019-03-27T18:01:40.838Z,27.53
2019-03-27T18:04:12.680Z,25.15
2019-03-27T18:06:44.180Z,26.90
2019-03-27T18:09:15.607Z,29.02
2019-03-27T18:11:46.798Z,28.60
2019-03-27T18:14:19.870Z,25.88
2019-03-27T18:16:52.788Z,26.82
2019-03-27T18:19:24.131Z,26.97
2019-03-27T18:22:07.071Z,26.82
2019-03-27T18:24:28.567Z,27.37
2019-03-27T18:27:00.186Z,28.47
2019-03-27T18:29:31.861Z,25.85
2019-03-27T18:32:03.076Z,26.33
2019-03-27T18:34:37.137Z,27.90
2019-03-27T18:37:08.490Z,28.52
2019-03-27T18:39:39.967Z,28.80
2019-03-27T18:42:11.398Z,29.80
2019-03-27T18:44:44.495Z,28.20
2019-03-27T18:47:16.962Z,29.30
2019-03-27T18:49:48.196Z,30.90
2019-03-27T18:52:19.816Z,32.33
2019-03-27T18:54:51.504Z,29.67
2019-03-27T18:57:25.999Z,27.33
2019-03-27T18:59:57.233Z,27.22
2019-03-27T19:02:29.027Z,27.13
2019-03-27T19:05:01.256Z,28.77
2019-03-27T19:07:32.418Z,29.48
2019-03-27T19:10:06.267Z,29.18
2019-03-27T19:12:44.108Z,34.60
2019-03-27T19:15:33.835Z,28.83
2019-03-27T19:18:06.303Z,33.33
2019-03-27T19:20:38.204Z,32.30
2019-03-27T19:23:10.077Z,30.02
2019-03-27T19:25:42.481Z,32.10
2019-03-27T19:28:13.763Z,29.10
2019-03-27T19:30:45.297Z,31.23
2019-03-27T19:33:16.810Z,37.53
2019-03-27T19:35:48.030Z,38.03
2019-03-27T19:38:19.612Z,30.08
2019-03-27T19:40:51.096Z,32.08
2019-03-27T19:43:22.330Z,29.60
2019-03-27T19:45:53.848Z,31.17
2019-03-27T19:48:25.545Z,38.60
2019-03-27T19:50:59.052Z,32.10
2019-03-27T19:53:30.819Z,35.30
2019-03-27T19:56:01.983Z,33.50
2019-03-27T19:58:33.111Z,34.63
2019-03-27T20:01:04.657Z,35.23
2019-03-27T20:03:35.994Z,34.63
2019-03-27T20:06:07.314Z,34.18
2019-03-27T20:08:38.583Z,32.48
2019-03-27T20:11:10.501Z,37.25
2019-03-27T20:13:42.289Z,33.38
2019-03-27T20:16:14.138Z,35.10
2019-03-27T20:18:45.386Z,33.25
2019-03-27T20:21:17.796Z,32.83
2019-03-27T20:23:49.437Z,33.02
2019-03-27T20:26:20.854Z,35.13
2019-03-27T20:28:52.662Z,34.90
2019-03-27T20:31:24.447Z,33.10
2019-03-27T20:33:55.583Z,35.05
2019-03-27T20:36:27.723Z,31.10
2019-03-27T20:38:59.816Z,33.30
2019-03-27T20:41:32.156Z,33.88
2019-03-27T20:44:06.470Z,34.13
2019-03-27T20:46:38.038Z,31.97
2019-03-27T20:49:09.241Z,35.80
2019-03-27T20:51:40.560Z,33.85
2019-03-27T20:54:11.661Z,33.25
2019-03-27T20:56:44.960Z,36.17
2019-03-27T20:59:18.481Z,33.50
2019-03-27T21:01:49.924Z,31.80
2019-03-27T21:04:21.771Z,35.23
2019-03-27T21:06:53.006Z,31.27
2019-03-27T21:09:24.540Z,35.08
2019-03-27T21:11:56.272Z,32.83
2019-03-27T21:14:27.586Z,35.17
2019-03-27T21:16:58.840Z,32.35
2019-03-27T21:19:31.216Z,33.43
2019-03-27T21:22:02.976Z,30.68
2019-03-27T21:24:34.703Z,33.75
2019-03-27T21:27:06.092Z,31.60
2019-03-27T21:29:37.275Z,34.03
2019-03-27T21:32:08.441Z,34.73
2019-03-27T21:34:40.114Z,31.93
2019-03-27T21:37:11.830Z,32.60
2019-03-27T21:39:54.710Z,33.80
2019-03-27T21:42:35.539Z,30.92
2019-03-27T21:45:08.762Z,32.88
2019-03-27T21:47:40.263Z,33.95
2019-03-27T21:50:12.510Z,33.98
2019-03-27T21:52:59.577Z,33.70
2019-03-27T21:55:22.822Z,33.53
2019-03-27T21:57:52.821Z,31.80
2019-03-27T22:00:40.434Z,33.70
2019-03-27T22:03:11.818Z,33.42
2019-03-27T22:05:43.617Z,32.37
2019-03-27T22:08:19.189Z,33.28
2019-03-27T22:10:50.380Z,32.60
2019-03-27T22:13:21.818Z,38.35
2019-03-27T22:15:53.070Z,35.48
2019-03-27T22:18:24.307Z,32.33
2019-03-27T22:20:55.446Z,31.15
2019-03-27T22:23:26.827Z,34.30
2019-03-27T22:25:58.263Z,33.60
2019-03-27T22:28:29.727Z,33.18
2019-03-27T22:31:01.144Z,35.05
2019-03-27T22:33:32.864Z,35.30
2019-03-27T22:36:05.275Z,32.95
2019-03-27T22:38:36.647Z,35.55
2019-03-27T22:41:07.804Z,36.53
2019-03-27T22:43:39.629Z,33.45
2019-03-27T22:46:10.870Z,33.23
2019-03-27T22:48:43.049Z,33.70
2019-03-27T22:51:14.810Z,33.70
2019-03-27T22:53:46.374Z,36.65
2019-03-27T22:56:18.143Z,33.55
2019-03-27T22:58:49.831Z,32.75
2019-03-27T23:01:20.848Z,34.08
2019-03-27T23:03:52.256Z,34.60
2019-03-27T23:06:24.142Z,34.53
2019-03-27T23:08:55.904Z,33.83
2019-03-27T23:11:27.703Z,33.53
2019-03-27T23:14:00.384Z,33.73
2019-03-27T23:16:33.800Z,34.27
2019-03-27T23:19:09.243Z,33.13
2019-03-27T23:21:41.201Z,36.75
2019-03-27T23:24:12.306Z,32.67
2019-03-27T23:26:43.548Z,35.15
2019-03-27T23:29:21.461Z,32.97
2019-03-27T23:31:56.193Z,31.30
2019-03-27T23:34:30.669Z,33.00
2019-03-27T23:37:02.227Z,33.80
2019-03-27T23:39:33.680Z,33.47
2019-03-27T23:42:04.867Z,32.33
2019-03-27T23:44:36.019Z,35.38
2019-03-27T23:47:07.204Z,33.42
2019-03-27T23:49:39.336Z,32.45
2019-03-27T23:52:13.434Z,32.28
2019-03-27T23:54:49.574Z,34.90
2019-03-27T23:57:21.407Z,33.08
2019-03-27T23:59:55.251Z,33.88
